sensor_id;sensor_type;location;lat;lon;timestamp;P1;durP1;ratioP1;P2;durP2;ratioP2
62863;SDS011;48954;59.950;11.014;2022-09-14T00:01:14;1.70;;;0.60;;
62863;SDS011;48954;59.950;11.014;2022-09-14T00:03:45;1.00;;;0.50;;
62863;SDS011;48954;59.950;11.014;2022-09-14T00:06:12;0.60;;;0.40;;
62863;SDS011;48954;59.950;11.014;2022-09-14T00:08:41;0.50;;;0.30;;
62863;SDS011;48954;59.950;11.014;2022-09-14T00:11:12;0.70;;;0.40;;
62863;SDS011;48954;59.950;11.014;2022-09-14T00:13:40;1.80;;;0.40;;
62863;SDS011;48954;59.950;11.014;2022-09-14T00:16:16;1.10;;;0.60;;
62863;SDS011;48954;59.950;11.014;2022-09-14T00:18:50;1.80;;;0.60;;
62863;SDS011;48954;59.950;11.014;2022-09-14T00:21:17;6.20;;;0.70;;
62863;SDS011;48954;59.950;11.014;2022-09-14T00:23:42;2.70;;;0.50;;
62863;SDS011;48954;59.950;11.014;2022-09-14T00:26:10;1.10;;;0.40;;
62863;SDS011;48954;59.950;11.014;2022-09-14T00:28:44;0.70;;;0.40;;
62863;SDS011;48954;59.950;11.014;2022-09-14T00:31:12;3.30;;;0.50;;
62863;SDS011;48954;59.950;11.014;2022-09-14T00:33:42;0.50;;;0.30;;
62863;SDS011;48954;59.950;11.014;2022-09-14T00:36:10;2.90;;;0.40;;
62863;SDS011;48954;59.950;11.014;2022-09-14T00:38:38;1.40;;;0.50;;
62863;SDS011;48954;59.950;11.014;2022-09-14T00:41:06;0.80;;;0.50;;
62863;SDS011;48954;59.950;11.014;2022-09-14T00:46:29;1.40;;;0.50;;
62863;SDS011;48954;59.950;11.014;2022-09-14T00:48:57;1.80;;;0.60;;
62863;SDS011;48954;59.950;11.014;2022-09-14T00:51:31;0.90;;;0.50;;
62863;SDS011;48954;59.950;11.014;2022-09-14T00:54:00;1.50;;;0.60;;
62863;SDS011;48954;59.950;11.014;2022-09-14T00:56:28;0.60;;;0.50;;
62863;SDS011;48954;59.950;11.014;2022-09-14T00:58:54;0.70;;;0.40;;
62863;SDS011;48954;59.950;11.014;2022-09-14T01:01:34;1.80;;;1.50;;
62863;SDS011;48954;59.950;11.014;2022-09-14T01:04:00;0.70;;;0.40;;
62863;SDS011;48954;59.950;11.014;2022-09-14T01:14:16;0.70;;;0.50;;
62863;SDS011;48954;59.950;11.014;2022-09-14T01:17:05;1.70;;;0.60;;
62863;SDS011;48954;59.950;11.014;2022-09-14T01:22:25;1.10;;;0.60;;
62863;SDS011;48954;59.950;11.014;2022-09-14T01:25:09;0.90;;;0.50;;
62863;SDS011;48954;59.950;11.014;2022-09-14T01:28:12;1.70;;;0.70;;
62863;SDS011;48954;59.950;11.014;2022-09-14T01:30:46;1.70;;;0.90;;
62863;SDS011;48954;59.950;11.014;2022-09-14T01:33:17;1.50;;;0.50;;
62863;SDS011;48954;59.950;11.014;2022-09-14T01:35:53;3.10;;;0.70;;
62863;SDS011;48954;59.950;11.014;2022-09-14T01:40:56;1.10;;;0.50;;
62863;SDS011;48954;59.950;11.014;2022-09-14T01:43:30;0.80;;;0.40;;
62863;SDS011;48954;59.950;11.014;2022-09-14T01:46:04;0.80;;;0.50;;
62863;SDS011;48954;59.950;11.014;2022-09-14T01:48:39;1.40;;;0.60;;
62863;SDS011;48954;59.950;11.014;2022-09-14T01:51:10;1.70;;;0.60;;
62863;SDS011;48954;59.950;11.014;2022-09-14T01:53:42;1.50;;;0.60;;
62863;SDS011;48954;59.950;11.014;2022-09-14T01:56:17;1.90;;;0.60;;
62863;SDS011;48954;59.950;11.014;2022-09-14T01:58:48;1.90;;;0.70;;
62863;SDS011;48954;59.950;11.014;2022-09-14T02:01:20;1.10;;;0.60;;
62863;SDS011;48954;59.950;11.014;2022-09-14T02:03:52;3.70;;;0.80;;
62863;SDS011;48954;59.950;11.014;2022-09-14T02:06:34;1.40;;;0.70;;
62863;SDS011;48954;59.950;11.014;2022-09-14T02:09:01;1.20;;;0.70;;
62863;SDS011;48954;59.950;11.014;2022-09-14T02:11:31;1.00;;;0.60;;
62863;SDS011;48954;59.950;11.014;2022-09-14T02:13:57;1.80;;;0.70;;
62863;SDS011;48954;59.950;11.014;2022-09-14T02:16:23;2.30;;;0.80;;
62863;SDS011;48954;59.950;11.014;2022-09-14T02:18:49;9.90;;;1.20;;
62863;SDS011;48954;59.950;11.014;2022-09-14T02:21:25;1.70;;;0.80;;
62863;SDS011;48954;59.950;11.014;2022-09-14T02:23:56;1.50;;;0.80;;
62863;SDS011;48954;59.950;11.014;2022-09-14T02:26:23;1.80;;;0.70;;
62863;SDS011;48954;59.950;11.014;2022-09-14T02:28:50;2.30;;;1.00;;
62863;SDS011;48954;59.950;11.014;2022-09-14T02:37:17;2.40;;;0.90;;
62863;SDS011;48954;59.950;11.014;2022-09-14T02:48:17;2.50;;;1.00;;
62863;SDS011;48954;59.950;11.014;2022-09-14T02:54:03;2.50;;;0.90;;
62863;SDS011;48954;59.950;11.014;2022-09-14T02:56:36;2.40;;;0.80;;
62863;SDS011;48954;59.950;11.014;2022-09-14T02:59:02;3.80;;;1.20;;
62863;SDS011;48954;59.950;11.014;2022-09-14T03:01:28;6.60;;;1.90;;
62863;SDS011;48954;59.950;11.014;2022-09-14T03:03:54;4.10;;;1.40;;
62863;SDS011;48954;59.950;11.014;2022-09-14T03:06:20;10.90;;;1.70;;
62863;SDS011;48954;59.950;11.014;2022-09-14T03:08:47;5.00;;;1.30;;
62863;SDS011;48954;59.950;11.014;2022-09-14T03:11:13;2.80;;;1.30;;
62863;SDS011;48954;59.950;11.014;2022-09-14T03:13:39;5.60;;;1.30;;
62863;SDS011;48954;59.950;11.014;2022-09-14T03:16:06;2.30;;;1.20;;
62863;SDS011;48954;59.950;11.014;2022-09-14T03:18:34;2.60;;;1.20;;
62863;SDS011;48954;59.950;11.014;2022-09-14T03:21:08;3.60;;;1.40;;
62863;SDS011;48954;59.950;11.014;2022-09-14T03:23:39;2.90;;;1.20;;
62863;SDS011;48954;59.950;11.014;2022-09-14T03:26:07;3.40;;;1.50;;
62863;SDS011;48954;59.950;11.014;2022-09-14T03:28:34;2.10;;;0.90;;
62863;SDS011;48954;59.950;11.014;2022-09-14T03:31:01;2.40;;;0.80;;
62863;SDS011;48954;59.950;11.014;2022-09-14T03:33:29;2.70;;;1.40;;
62863;SDS011;48954;59.950;11.014;2022-09-14T03:35:54;2.80;;;1.00;;
62863;SDS011;48954;59.950;11.014;2022-09-14T03:38:20;3.40;;;1.00;;
62863;SDS011;48954;59.950;11.014;2022-09-14T03:40:46;2.30;;;1.00;;
62863;SDS011;48954;59.950;11.014;2022-09-14T03:43:11;1.80;;;1.00;;
62863;SDS011;48954;59.950;11.014;2022-09-14T03:45:38;1.70;;;0.80;;
62863;SDS011;48954;59.950;11.014;2022-09-14T03:48:04;1.50;;;0.80;;
62863;SDS011;48954;59.950;11.014;2022-09-14T03:50:30;2.30;;;0.90;;
62863;SDS011;48954;59.950;11.014;2022-09-14T03:52:56;3.50;;;1.00;;
62863;SDS011;48954;59.950;11.014;2022-09-14T03:55:22;6.90;;;1.70;;
62863;SDS011;48954;59.950;11.014;2022-09-14T03:57:51;1.70;;;0.90;;
62863;SDS011;48954;59.950;11.014;2022-09-14T04:00:18;2.90;;;1.00;;
62863;SDS011;48954;59.950;11.014;2022-09-14T04:02:44;5.90;;;1.00;;
62863;SDS011;48954;59.950;11.014;2022-09-14T04:05:10;3.00;;;1.00;;
62863;SDS011;48954;59.950;11.014;2022-09-14T04:07:36;2.50;;;1.10;;
62863;SDS011;48954;59.950;11.014;2022-09-14T04:10:02;1.80;;;1.00;;
62863;SDS011;48954;59.950;11.014;2022-09-14T04:12:32;2.30;;;1.00;;
62863;SDS011;48954;59.950;11.014;2022-09-14T04:14:59;3.20;;;1.10;;
62863;SDS011;48954;59.950;11.014;2022-09-14T04:17:25;1.60;;;1.00;;
62863;SDS011;48954;59.950;11.014;2022-09-14T04:19:52;2.50;;;1.10;;
62863;SDS011;48954;59.950;11.014;2022-09-14T04:22:17;1.70;;;0.80;;
62863;SDS011;48954;59.950;11.014;2022-09-14T04:24:43;2.40;;;1.10;;
62863;SDS011;48954;59.950;11.014;2022-09-14T04:27:09;2.30;;;1.10;;
62863;SDS011;48954;59.950;11.014;2022-09-14T04:29:35;1.80;;;1.00;;
62863;SDS011;48954;59.950;11.014;2022-09-14T04:32:00;2.10;;;1.00;;
62863;SDS011;48954;59.950;11.014;2022-09-14T04:34:26;2.10;;;1.00;;
62863;SDS011;48954;59.950;11.014;2022-09-14T04:36:52;1.50;;;0.90;;
62863;SDS011;48954;59.950;11.014;2022-09-14T04:39:18;2.30;;;1.00;;
62863;SDS011;48954;59.950;11.014;2022-09-14T04:41:43;4.30;;;1.30;;
62863;SDS011;48954;59.950;11.014;2022-09-14T04:44:09;2.70;;;1.20;;
62863;SDS011;48954;59.950;11.014;2022-09-14T04:46:35;2.30;;;1.40;;
62863;SDS011;48954;59.950;11.014;2022-09-14T04:49:01;2.50;;;1.30;;
62863;SDS011;48954;59.950;11.014;2022-09-14T04:51:29;2.80;;;1.30;;
62863;SDS011;48954;59.950;11.014;2022-09-14T04:53:56;3.70;;;1.40;;
62863;SDS011;48954;59.950;11.014;2022-09-14T04:56:24;4.10;;;1.40;;
62863;SDS011;48954;59.950;11.014;2022-09-14T04:58:52;2.90;;;1.60;;
62863;SDS011;48954;59.950;11.014;2022-09-14T05:01:21;2.80;;;1.30;;
62863;SDS011;48954;59.950;11.014;2022-09-14T05:03:49;3.40;;;1.60;;
62863;SDS011;48954;59.950;11.014;2022-09-14T05:06:20;2.30;;;1.30;;
62863;SDS011;48954;59.950;11.014;2022-09-14T05:08:47;3.40;;;1.60;;
62863;SDS011;48954;59.950;11.014;2022-09-14T05:11:16;3.30;;;1.60;;
62863;SDS011;48954;59.950;11.014;2022-09-14T05:13:43;6.70;;;2.00;;
62863;SDS011;48954;59.950;11.014;2022-09-14T05:16:12;6.90;;;3.00;;
62863;SDS011;48954;59.950;11.014;2022-09-14T05:18:41;5.70;;;2.00;;
62863;SDS011;48954;59.950;11.014;2022-09-14T05:21:07;4.30;;;2.10;;
62863;SDS011;48954;59.950;11.014;2022-09-14T05:23:37;4.20;;;1.90;;
62863;SDS011;48954;59.950;11.014;2022-09-14T05:26:03;3.90;;;2.00;;
62863;SDS011;48954;59.950;11.014;2022-09-14T05:28:29;5.00;;;2.30;;
62863;SDS011;48954;59.950;11.014;2022-09-14T05:30:56;4.00;;;2.20;;
62863;SDS011;48954;59.950;11.014;2022-09-14T05:33:22;5.10;;;2.10;;
62863;SDS011;48954;59.950;11.014;2022-09-14T05:35:58;5.00;;;2.20;;
62863;SDS011;48954;59.950;11.014;2022-09-14T05:38:30;3.30;;;1.70;;
62863;SDS011;48954;59.950;11.014;2022-09-14T05:40:58;6.10;;;2.20;;
62863;SDS011;48954;59.950;11.014;2022-09-14T05:43:25;4.90;;;2.40;;
62863;SDS011;48954;59.950;11.014;2022-09-14T05:45:53;5.80;;;1.90;;
62863;SDS011;48954;59.950;11.014;2022-09-14T05:48:20;3.70;;;1.50;;
62863;SDS011;48954;59.950;11.014;2022-09-14T05:50:48;3.90;;;1.70;;
62863;SDS011;48954;59.950;11.014;2022-09-14T05:53:29;4.10;;;1.60;;
62863;SDS011;48954;59.950;11.014;2022-09-14T05:56:06;4.10;;;1.80;;
62863;SDS011;48954;59.950;11.014;2022-09-14T05:58:53;4.10;;;1.70;;
62863;SDS011;48954;59.950;11.014;2022-09-14T06:01:27;4.30;;;1.80;;
62863;SDS011;48954;59.950;11.014;2022-09-14T06:03:56;5.80;;;1.90;;
62863;SDS011;48954;59.950;11.014;2022-09-14T06:06:25;5.00;;;1.60;;
62863;SDS011;48954;59.950;11.014;2022-09-14T06:08:54;8.60;;;3.00;;
62863;SDS011;48954;59.950;11.014;2022-09-14T06:11:29;8.00;;;3.20;;
62863;SDS011;48954;59.950;11.014;2022-09-14T06:13:57;7.20;;;2.40;;
62863;SDS011;48954;59.950;11.014;2022-09-14T06:16:25;2.80;;;1.40;;
62863;SDS011;48954;59.950;11.014;2022-09-14T06:18:53;3.80;;;1.70;;
62863;SDS011;48954;59.950;11.014;2022-09-14T06:21:22;4.90;;;1.60;;
62863;SDS011;48954;59.950;11.014;2022-09-14T06:23:53;4.80;;;2.30;;
62863;SDS011;48954;59.950;11.014;2022-09-14T06:26:19;5.70;;;2.80;;
62863;SDS011;48954;59.950;11.014;2022-09-14T06:28:46;12.30;;;2.60;;
62863;SDS011;48954;59.950;11.014;2022-09-14T06:31:14;10.00;;;2.50;;
62863;SDS011;48954;59.950;11.014;2022-09-14T06:33:45;6.20;;;2.10;;
62863;SDS011;48954;59.950;11.014;2022-09-14T06:36:13;11.40;;;3.10;;
62863;SDS011;48954;59.950;11.014;2022-09-14T06:38:42;14.40;;;3.90;;
62863;SDS011;48954;59.950;11.014;2022-09-14T06:41:11;9.40;;;2.40;;
62863;SDS011;48954;59.950;11.014;2022-09-14T06:43:40;5.70;;;2.10;;
62863;SDS011;48954;59.950;11.014;2022-09-14T06:46:15;5.70;;;2.00;;
62863;SDS011;48954;59.950;11.014;2022-09-14T06:48:45;9.60;;;2.60;;
62863;SDS011;48954;59.950;11.014;2022-09-14T06:53:51;7.10;;;2.90;;
62863;SDS011;48954;59.950;11.014;2022-09-14T06:56:17;8.80;;;4.50;;
62863;SDS011;48954;59.950;11.014;2022-09-14T06:58:45;7.90;;;3.70;;
62863;SDS011;48954;59.950;11.014;2022-09-14T07:01:12;9.20;;;4.10;;
62863;SDS011;48954;59.950;11.014;2022-09-14T07:03:41;10.00;;;3.60;;
62863;SDS011;48954;59.950;11.014;2022-09-14T07:06:10;9.20;;;2.40;;
62863;SDS011;48954;59.950;11.014;2022-09-14T07:08:39;7.40;;;2.60;;
62863;SDS011;48954;59.950;11.014;2022-09-14T07:11:10;8.60;;;2.50;;
62863;SDS011;48954;59.950;11.014;2022-09-14T07:13:39;7.10;;;2.40;;
62863;SDS011;48954;59.950;11.014;2022-09-14T07:16:07;5.80;;;3.10;;
62863;SDS011;48954;59.950;11.014;2022-09-14T07:18:33;11.80;;;3.30;;
62863;SDS011;48954;59.950;11.014;2022-09-14T07:21:01;6.10;;;2.70;;
62863;SDS011;48954;59.950;11.014;2022-09-14T07:23:29;7.30;;;2.50;;
62863;SDS011;48954;59.950;11.014;2022-09-14T07:26:17;8.00;;;3.00;;
62863;SDS011;48954;59.950;11.014;2022-09-14T07:28:49;6.50;;;2.90;;
62863;SDS011;48954;59.950;11.014;2022-09-14T07:31:46;9.10;;;3.10;;
62863;SDS011;48954;59.950;11.014;2022-09-14T07:34:23;9.50;;;3.20;;
62863;SDS011;48954;59.950;11.014;2022-09-14T07:36:51;8.00;;;2.80;;
62863;SDS011;48954;59.950;11.014;2022-09-14T07:39:17;7.80;;;3.00;;
62863;SDS011;48954;59.950;11.014;2022-09-14T07:41:43;7.20;;;3.80;;
62863;SDS011;48954;59.950;11.014;2022-09-14T07:44:12;6.80;;;2.90;;
62863;SDS011;48954;59.950;11.014;2022-09-14T07:46:40;8.20;;;2.00;;
62863;SDS011;48954;59.950;11.014;2022-09-14T07:49:08;6.90;;;2.00;;
62863;SDS011;48954;59.950;11.014;2022-09-14T07:51:38;7.10;;;2.10;;
62863;SDS011;48954;59.950;11.014;2022-09-14T07:54:09;8.90;;;2.00;;
62863;SDS011;48954;59.950;11.014;2022-09-14T07:56:38;4.70;;;1.80;;
62863;SDS011;48954;59.950;11.014;2022-09-14T07:59:05;9.80;;;2.10;;
62863;SDS011;48954;59.950;11.014;2022-09-14T08:01:32;6.90;;;2.70;;
62863;SDS011;48954;59.950;11.014;2022-09-14T08:04:01;8.20;;;3.10;;
62863;SDS011;48954;59.950;11.014;2022-09-14T08:06:27;11.20;;;2.80;;
62863;SDS011;48954;59.950;11.014;2022-09-14T08:08:55;5.10;;;1.90;;
62863;SDS011;48954;59.950;11.014;2022-09-14T08:11:23;5.20;;;1.80;;
62863;SDS011;48954;59.950;11.014;2022-09-14T08:13:51;8.40;;;2.00;;
62863;SDS011;48954;59.950;11.014;2022-09-14T08:16:36;7.80;;;2.00;;
62863;SDS011;48954;59.950;11.014;2022-09-14T08:19:09;4.60;;;1.90;;
62863;SDS011;48954;59.950;11.014;2022-09-14T08:21:47;4.30;;;2.00;;
62863;SDS011;48954;59.950;11.014;2022-09-14T08:24:20;5.30;;;1.70;;
62863;SDS011;48954;59.950;11.014;2022-09-14T08:26:50;7.60;;;2.50;;
62863;SDS011;48954;59.950;11.014;2022-09-14T08:29:17;9.80;;;2.70;;
62863;SDS011;48954;59.950;11.014;2022-09-14T08:31:47;6.40;;;2.80;;
62863;SDS011;48954;59.950;11.014;2022-09-14T08:34:18;7.80;;;2.50;;
62863;SDS011;48954;59.950;11.014;2022-09-14T08:36:46;8.40;;;2.60;;
62863;SDS011;48954;59.950;11.014;2022-09-14T08:39:13;7.90;;;2.50;;
62863;SDS011;48954;59.950;11.014;2022-09-14T08:47:03;9.00;;;2.30;;
62863;SDS011;48954;59.950;11.014;2022-09-14T08:52:35;5.90;;;2.20;;
62863;SDS011;48954;59.950;11.014;2022-09-14T08:58:12;5.20;;;2.00;;
62863;SDS011;48954;59.950;11.014;2022-09-14T09:09:40;6.30;;;2.10;;
62863;SDS011;48954;59.950;11.014;2022-09-14T09:12:15;6.00;;;2.00;;
62863;SDS011;48954;59.950;11.014;2022-09-14T09:14:56;2.60;;;1.50;;
62863;SDS011;48954;59.950;11.014;2022-09-14T09:17:27;3.00;;;1.40;;
62863;SDS011;48954;59.950;11.014;2022-09-14T09:22:50;4.60;;;1.20;;
62863;SDS011;48954;59.950;11.014;2022-09-14T09:25:25;2.80;;;1.30;;
62863;SDS011;48954;59.950;11.014;2022-09-14T09:27:55;2.50;;;1.10;;
62863;SDS011;48954;59.950;11.014;2022-09-14T09:30:34;3.40;;;1.50;;
62863;SDS011;48954;59.950;11.014;2022-09-14T09:33:03;3.90;;;1.40;;
62863;SDS011;48954;59.950;11.014;2022-09-14T09:35:28;3.70;;;1.70;;
62863;SDS011;48954;59.950;11.014;2022-09-14T09:38:00;7.80;;;2.00;;
62863;SDS011;48954;59.950;11.014;2022-09-14T09:40:34;5.90;;;1.60;;
62863;SDS011;48954;59.950;11.014;2022-09-14T09:43:06;6.40;;;1.60;;
62863;SDS011;48954;59.950;11.014;2022-09-14T09:48:12;6.30;;;2.10;;
62863;SDS011;48954;59.950;11.014;2022-09-14T09:51:26;6.30;;;1.80;;
62863;SDS011;48954;59.950;11.014;2022-09-14T09:53:50;3.20;;;1.80;;
62863;SDS011;48954;59.950;11.014;2022-09-14T09:56:58;6.30;;;2.10;;
62863;SDS011;48954;59.950;11.014;2022-09-14T09:59:35;6.90;;;2.80;;
62863;SDS011;48954;59.950;11.014;2022-09-14T10:07:39;13.80;;;4.00;;
62863;SDS011;48954;59.950;11.014;2022-09-14T10:10:17;13.20;;;6.80;;
62863;SDS011;48954;59.950;11.014;2022-09-14T10:12:54;3.70;;;1.90;;
62863;SDS011;48954;59.950;11.014;2022-09-14T10:15:34;5.30;;;1.70;;
62863;SDS011;48954;59.950;11.014;2022-09-14T10:20:31;5.00;;;1.40;;
62863;SDS011;48954;59.950;11.014;2022-09-14T10:26:34;4.70;;;1.20;;
62863;SDS011;48954;59.950;11.014;2022-09-14T10:29:55;6.80;;;1.60;;
62863;SDS011;48954;59.950;11.014;2022-09-14T10:33:07;9.60;;;1.80;;
62863;SDS011;48954;59.950;11.014;2022-09-14T10:42:12;2.90;;;1.20;;
62863;SDS011;48954;59.950;11.014;2022-09-14T10:45:33;3.10;;;0.90;;
62863;SDS011;48954;59.950;11.014;2022-09-14T10:58:11;1.80;;;1.10;;
62863;SDS011;48954;59.950;11.014;2022-09-14T11:08:43;1.50;;;0.80;;
62863;SDS011;48954;59.950;11.014;2022-09-14T11:24:18;2.00;;;0.50;;
62863;SDS011;48954;59.950;11.014;2022-09-14T11:36:18;1.00;;;0.40;;
62863;SDS011;48954;59.950;11.014;2022-09-14T11:39:21;1.90;;;0.50;;
62863;SDS011;48954;59.950;11.014;2022-09-14T11:50:26;0.90;;;0.50;;
62863;SDS011;48954;59.950;11.014;2022-09-14T11:56:23;1.30;;;0.60;;
62863;SDS011;48954;59.950;11.014;2022-09-14T12:05:25;3.00;;;0.70;;
62863;SDS011;48954;59.950;11.014;2022-09-14T12:45:45;4.00;;;0.60;;
62863;SDS011;48954;59.950;11.014;2022-09-14T12:52:09;1.10;;;0.50;;
62863;SDS011;48954;59.950;11.014;2022-09-14T12:55:01;1.20;;;0.50;;
62863;SDS011;48954;59.950;11.014;2022-09-14T12:57:50;2.10;;;0.60;;
62863;SDS011;48954;59.950;11.014;2022-09-14T13:23:35;0.90;;;0.40;;
62863;SDS011;48954;59.950;11.014;2022-09-14T13:29:11;1.20;;;0.60;;
62863;SDS011;48954;59.950;11.014;2022-09-14T13:31:44;1.90;;;0.70;;
62863;SDS011;48954;59.950;11.014;2022-09-14T13:34:18;1.40;;;0.60;;
62863;SDS011;48954;59.950;11.014;2022-09-14T13:37:07;1.10;;;0.40;;
62863;SDS011;48954;59.950;11.014;2022-09-14T13:42:34;1.70;;;0.50;;
62863;SDS011;48954;59.950;11.014;2022-09-14T13:45:19;0.80;;;0.50;;
62863;SDS011;48954;59.950;11.014;2022-09-14T13:48:03;2.90;;;0.80;;
62863;SDS011;48954;59.950;11.014;2022-09-14T13:58:49;2.20;;;0.70;;
62863;SDS011;48954;59.950;11.014;2022-09-14T14:01:57;1.70;;;0.60;;
62863;SDS011;48954;59.950;11.014;2022-09-14T14:07:27;1.40;;;0.70;;
62863;SDS011;48954;59.950;11.014;2022-09-14T14:10:33;1.20;;;0.50;;
62863;SDS011;48954;59.950;11.014;2022-09-14T14:13:11;1.70;;;0.60;;
62863;SDS011;48954;59.950;11.014;2022-09-14T14:16:19;1.90;;;0.70;;
62863;SDS011;48954;59.950;11.014;2022-09-14T14:19:27;1.70;;;0.80;;
62863;SDS011;48954;59.950;11.014;2022-09-14T14:22:31;1.20;;;0.60;;
62863;SDS011;48954;59.950;11.014;2022-09-14T14:25:40;1.10;;;0.50;;
62863;SDS011;48954;59.950;11.014;2022-09-14T14:28:46;1.30;;;0.60;;
62863;SDS011;48954;59.950;11.014;2022-09-14T14:31:40;0.50;;;0.40;;
62863;SDS011;48954;59.950;11.014;2022-09-14T14:34:42;0.70;;;0.50;;
62863;SDS011;48954;59.950;11.014;2022-09-14T14:37:48;6.30;;;1.70;;
62863;SDS011;48954;59.950;11.014;2022-09-14T14:40:34;2.30;;;0.90;;
62863;SDS011;48954;59.950;11.014;2022-09-14T14:45:40;7.80;;;2.40;;
62863;SDS011;48954;59.950;11.014;2022-09-14T14:48:09;2.30;;;0.70;;
62863;SDS011;48954;59.950;11.014;2022-09-14T14:50:45;12.10;;;3.20;;
62863;SDS011;48954;59.950;11.014;2022-09-14T14:56:24;4.60;;;0.80;;
62863;SDS011;48954;59.950;11.014;2022-09-14T14:58:55;2.70;;;0.90;;
62863;SDS011;48954;59.950;11.014;2022-09-14T15:01:24;0.70;;;0.40;;
62863;SDS011;48954;59.950;11.014;2022-09-14T15:03:59;14.00;;;7.30;;
62863;SDS011;48954;59.950;11.014;2022-09-14T15:06:32;2.10;;;0.90;;
62863;SDS011;48954;59.950;11.014;2022-09-14T15:09:13;2.50;;;0.60;;
62863;SDS011;48954;59.950;11.014;2022-09-14T15:12:16;3.20;;;1.10;;
62863;SDS011;48954;59.950;11.014;2022-09-14T15:14:41;18.90;;;11.00;;
62863;SDS011;48954;59.950;11.014;2022-09-14T15:17:07;5.90;;;2.50;;
62863;SDS011;48954;59.950;11.014;2022-09-14T15:19:33;2.30;;;1.10;;
62863;SDS011;48954;59.950;11.014;2022-09-14T15:21:58;14.90;;;3.50;;
62863;SDS011;48954;59.950;11.014;2022-09-14T15:24:24;69.90;;;14.80;;
62863;SDS011;48954;59.950;11.014;2022-09-14T15:26:50;78.50;;;11.30;;
62863;SDS011;48954;59.950;11.014;2022-09-14T15:29:17;26.90;;;4.90;;
62863;SDS011;48954;59.950;11.014;2022-09-14T15:31:42;126.30;;;18.50;;
62863;SDS011;48954;59.950;11.014;2022-09-14T15:34:08;14.90;;;2.60;;
62863;SDS011;48954;59.950;11.014;2022-09-14T15:36:35;8.60;;;1.90;;
62863;SDS011;48954;59.950;11.014;2022-09-14T15:39:13;4.00;;;1.50;;
62863;SDS011;48954;59.950;11.014;2022-09-14T15:41:39;3.50;;;1.30;;
62863;SDS011;48954;59.950;11.014;2022-09-14T15:44:05;4.50;;;1.40;;
62863;SDS011;48954;59.950;11.014;2022-09-14T15:46:32;2.10;;;1.10;;
62863;SDS011;48954;59.950;11.014;2022-09-14T15:48:58;2.80;;;1.10;;
62863;SDS011;48954;59.950;11.014;2022-09-14T15:51:28;4.60;;;2.00;;
62863;SDS011;48954;59.950;11.014;2022-09-14T15:53:53;6.70;;;2.10;;
62863;SDS011;48954;59.950;11.014;2022-09-14T15:56:19;4.90;;;2.50;;
62863;SDS011;48954;59.950;11.014;2022-09-14T15:58:45;4.70;;;1.80;;
62863;SDS011;48954;59.950;11.014;2022-09-14T16:01:12;5.60;;;2.30;;
62863;SDS011;48954;59.950;11.014;2022-09-14T16:03:39;4.80;;;2.30;;
62863;SDS011;48954;59.950;11.014;2022-09-14T16:06:05;7.10;;;3.40;;
62863;SDS011;48954;59.950;11.014;2022-09-14T16:08:33;5.20;;;2.30;;
62863;SDS011;48954;59.950;11.014;2022-09-14T16:11:00;5.50;;;1.80;;
62863;SDS011;48954;59.950;11.014;2022-09-14T16:13:27;4.40;;;1.80;;
62863;SDS011;48954;59.950;11.014;2022-09-14T16:18:33;3.50;;;2.20;;
62863;SDS011;48954;59.950;11.014;2022-09-14T16:23:53;4.80;;;2.20;;
62863;SDS011;48954;59.950;11.014;2022-09-14T16:26:21;4.40;;;1.40;;
62863;SDS011;48954;59.950;11.014;2022-09-14T16:28:54;2.90;;;1.30;;
62863;SDS011;48954;59.950;11.014;2022-09-14T16:31:24;3.20;;;1.50;;
62863;SDS011;48954;59.950;11.014;2022-09-14T16:33:53;2.80;;;1.40;;
62863;SDS011;48954;59.950;11.014;2022-09-14T16:36:21;3.40;;;1.40;;
62863;SDS011;48954;59.950;11.014;2022-09-14T16:38:49;2.30;;;1.00;;
62863;SDS011;48954;59.950;11.014;2022-09-14T16:41:14;1.70;;;0.90;;
62863;SDS011;48954;59.950;11.014;2022-09-14T16:43:41;3.80;;;1.10;;
62863;SDS011;48954;59.950;11.014;2022-09-14T16:46:13;2.70;;;0.80;;
62863;SDS011;48954;59.950;11.014;2022-09-14T16:48:41;3.00;;;0.90;;
62863;SDS011;48954;59.950;11.014;2022-09-14T16:51:09;2.50;;;1.30;;
62863;SDS011;48954;59.950;11.014;2022-09-14T16:53:37;3.30;;;1.60;;
62863;SDS011;48954;59.950;11.014;2022-09-14T16:56:10;2.60;;;1.60;;
62863;SDS011;48954;59.950;11.014;2022-09-14T16:58:37;4.10;;;1.90;;
62863;SDS011;48954;59.950;11.014;2022-09-14T17:03:39;7.10;;;3.00;;
62863;SDS011;48954;59.950;11.014;2022-09-14T17:06:07;5.30;;;3.10;;
62863;SDS011;48954;59.950;11.014;2022-09-14T17:08:42;7.90;;;2.60;;
62863;SDS011;48954;59.950;11.014;2022-09-14T17:11:09;6.10;;;2.30;;
62863;SDS011;48954;59.950;11.014;2022-09-14T17:13:36;5.70;;;2.40;;
62863;SDS011;48954;59.950;11.014;2022-09-14T17:18:29;5.90;;;2.90;;
62863;SDS011;48954;59.950;11.014;2022-09-14T17:21:00;6.90;;;3.30;;
62863;SDS011;48954;59.950;11.014;2022-09-14T17:23:30;8.90;;;3.10;;
62863;SDS011;48954;59.950;11.014;2022-09-14T17:25:57;4.90;;;2.30;;
62863;SDS011;48954;59.950;11.014;2022-09-14T17:28:24;8.20;;;3.00;;
62863;SDS011;48954;59.950;11.014;2022-09-14T17:30:55;12.00;;;5.20;;
62863;SDS011;48954;59.950;11.014;2022-09-14T17:33:22;24.80;;;5.90;;
62863;SDS011;48954;59.950;11.014;2022-09-14T17:35:52;16.60;;;5.10;;
62863;SDS011;48954;59.950;11.014;2022-09-14T17:38:20;9.70;;;3.20;;
62863;SDS011;48954;59.950;11.014;2022-09-14T17:40:48;273.90;;;40.40;;
62863;SDS011;48954;59.950;11.014;2022-09-14T17:43:14;585.60;;;86.40;;
62863;SDS011;48954;59.950;11.014;2022-09-14T17:45:49;343.00;;;48.10;;
62863;SDS011;48954;59.950;11.014;2022-09-14T17:48:16;42.40;;;7.00;;
62863;SDS011;48954;59.950;11.014;2022-09-14T17:50:42;16.50;;;4.20;;
62863;SDS011;48954;59.950;11.014;2022-09-14T17:53:08;10.20;;;3.70;;
62863;SDS011;48954;59.950;11.014;2022-09-14T17:55:33;10.90;;;3.40;;
62863;SDS011;48954;59.950;11.014;2022-09-14T17:57:59;8.40;;;3.30;;
62863;SDS011;48954;59.950;11.014;2022-09-14T18:00:25;7.20;;;3.70;;
62863;SDS011;48954;59.950;11.014;2022-09-14T18:02:51;9.20;;;4.10;;
62863;SDS011;48954;59.950;11.014;2022-09-14T18:05:17;17.20;;;9.20;;
62863;SDS011;48954;59.950;11.014;2022-09-14T18:07:44;18.00;;;8.70;;
62863;SDS011;48954;59.950;11.014;2022-09-14T18:10:12;23.60;;;10.80;;
62863;SDS011;48954;59.950;11.014;2022-09-14T18:12:38;18.30;;;8.30;;
62863;SDS011;48954;59.950;11.014;2022-09-14T18:15:04;27.50;;;10.50;;
62863;SDS011;48954;59.950;11.014;2022-09-14T18:17:31;17.90;;;7.50;;
62863;SDS011;48954;59.950;11.014;2022-09-14T18:19:57;12.90;;;5.40;;
62863;SDS011;48954;59.950;11.014;2022-09-14T18:22:25;13.90;;;5.20;;
62863;SDS011;48954;59.950;11.014;2022-09-14T18:24:51;6.50;;;3.00;;
62863;SDS011;48954;59.950;11.014;2022-09-14T18:27:23;8.30;;;3.80;;
62863;SDS011;48954;59.950;11.014;2022-09-14T18:29:49;5.60;;;4.00;;
62863;SDS011;48954;59.950;11.014;2022-09-14T18:32:15;8.60;;;3.40;;
62863;SDS011;48954;59.950;11.014;2022-09-14T18:34:44;5.70;;;2.60;;
62863;SDS011;48954;59.950;11.014;2022-09-14T18:37:10;5.10;;;2.20;;
62863;SDS011;48954;59.950;11.014;2022-09-14T18:39:36;5.70;;;2.80;;
62863;SDS011;48954;59.950;11.014;2022-09-14T18:42:04;5.40;;;2.50;;
62863;SDS011;48954;59.950;11.014;2022-09-14T18:44:29;6.70;;;2.70;;
62863;SDS011;48954;59.950;11.014;2022-09-14T18:46:55;4.30;;;2.20;;
62863;SDS011;48954;59.950;11.014;2022-09-14T18:49:21;5.30;;;2.90;;
62863;SDS011;48954;59.950;11.014;2022-09-14T18:51:47;5.70;;;2.60;;
62863;SDS011;48954;59.950;11.014;2022-09-14T18:54:13;4.60;;;2.30;;
62863;SDS011;48954;59.950;11.014;2022-09-14T18:56:39;8.00;;;2.80;;